createdAt,value
2018-07-12T00:56:51.226Z,99.90
2018-07-12T00:59:18.987Z,99.90
2018-07-12T01:01:46.676Z,99.90
2018-07-12T01:04:14.211Z,99.90
2018-07-12T01:06:41.548Z,99.90
2018-07-12T01:09:09.013Z,99.90
2018-07-12T01:11:36.485Z,99.90
2018-07-12T01:16:31.700Z,99.90
2018-07-12T01:18:59.390Z,99.90
2018-07-12T01:21:26.810Z,99.90
2018-07-12T01:23:55.324Z,99.90
2018-07-12T01:26:22.743Z,99.90
2018-07-12T01:28:50.515Z,99.90
2018-07-12T01:31:18.910Z,99.90
2018-07-12T01:33:46.217Z,99.90
2018-07-12T01:36:14.924Z,99.90
2018-07-12T01:38:42.133Z,99.90
2018-07-12T01:41:09.605Z,99.90
2018-07-12T01:43:36.945Z,99.90
2018-07-12T01:46:04.672Z,99.90
2018-07-12T01:48:32.848Z,99.90
2018-07-12T01:51:00.194Z,99.90
2018-07-12T01:53:27.492Z,99.90
2018-07-12T01:55:55.229Z,99.90
2018-07-12T01:58:22.671Z,99.90
2018-07-12T02:00:50.451Z,99.90
2018-07-12T02:03:19.164Z,99.90
2018-07-12T02:05:46.479Z,99.90
2018-07-12T02:10:41.914Z,99.90
2018-07-12T02:13:09.252Z,99.90
2018-07-12T02:15:36.824Z,99.90
2018-07-12T02:18:05.079Z,99.90
2018-07-12T02:23:00.173Z,99.90
2018-07-12T02:25:27.464Z,99.90
2018-07-12T02:27:54.762Z,99.90
2018-07-12T02:30:22.071Z,99.90
2018-07-12T02:32:49.831Z,99.90
2018-07-12T02:35:17.221Z,99.90
2018-07-12T02:37:45.203Z,99.90
2018-07-12T02:40:12.542Z,99.90
2018-07-12T02:42:39.855Z,99.90
2018-07-12T02:45:07.330Z,99.90
2018-07-12T02:47:35.196Z,99.90
2018-07-12T02:52:30.349Z,99.90
2018-07-12T02:54:57.768Z,99.90
2018-07-12T02:59:53.328Z,99.90
2018-07-12T03:02:20.845Z,99.90
2018-07-12T03:04:48.298Z,99.90
2018-07-12T03:07:15.635Z,99.90
2018-07-12T03:09:43.007Z,99.90
2018-07-12T03:12:10.709Z,99.90
2018-07-12T03:14:38.786Z,99.90
2018-07-12T03:17:06.203Z,99.90
2018-07-12T03:19:34.155Z,99.90
2018-07-12T03:22:01.471Z,99.90
2018-07-12T03:24:28.746Z,99.90
2018-07-12T03:26:56.481Z,99.90
2018-07-12T03:29:23.798Z,99.90
2018-07-12T03:31:51.329Z,99.90
2018-07-12T03:34:19.544Z,99.90
2018-07-12T03:36:47.203Z,99.90
2018-07-12T03:39:14.532Z,99.90
2018-07-12T03:41:41.861Z,99.90
2018-07-12T03:44:09.183Z,99.90
2018-07-12T03:46:36.764Z,99.90
2018-07-12T03:49:04.109Z,99.90
2018-07-12T03:51:31.497Z,99.90
2018-07-12T03:53:58.800Z,99.90
2018-07-12T03:56:26.730Z,99.90
2018-07-12T03:58:54.664Z,99.90
2018-07-12T04:01:22.086Z,99.90
2018-07-12T04:03:49.610Z,99.90
2018-07-12T04:06:17.171Z,99.90
2018-07-12T04:08:45.278Z,99.90
2018-07-12T04:11:12.798Z,99.90
2018-07-12T04:13:40.123Z,99.90
2018-07-12T04:16:07.622Z,99.90
2018-07-12T04:21:02.530Z,99.90
2018-07-12T04:23:30.218Z,99.90
2018-07-12T04:25:57.860Z,99.90
2018-07-12T04:30:53.714Z,99.90
2018-07-12T04:33:21.065Z,99.90
2018-07-12T04:35:48.377Z,99.90
2018-07-12T04:38:15.749Z,99.90
2018-07-12T04:40:43.076Z,99.90
2018-07-12T04:43:10.416Z,99.90
2018-07-12T04:45:37.714Z,99.90
2018-07-12T04:48:05.053Z,99.90
2018-07-12T04:50:32.367Z,99.90
2018-07-12T04:53:00.107Z,99.90
2018-07-12T04:55:27.962Z,99.90
2018-07-12T04:57:55.458Z,99.90
2018-07-12T05:00:22.786Z,99.90
2018-07-12T05:02:50.623Z,99.90
2018-07-12T05:05:18.102Z,99.90
2018-07-12T05:07:45.711Z,99.90
2018-07-12T05:10:14.252Z,99.90
2018-07-12T05:12:41.587Z,99.90
2018-07-12T05:15:09.384Z,99.90
2018-07-12T05:17:36.696Z,99.90
2018-07-12T05:20:03.988Z,99.90
2018-07-12T05:22:31.495Z,99.90
2018-07-12T05:24:58.794Z,99.90
2018-07-12T05:27:26.197Z,99.90
2018-07-12T05:29:53.984Z,99.90
2018-07-12T05:32:21.484Z,99.90
2018-07-12T05:34:51.586Z,99.90
2018-07-12T05:37:20.675Z,99.90
2018-07-12T05:39:51.185Z,99.90
2018-07-12T05:42:19.748Z,99.90
2018-07-12T05:44:48.346Z,99.90
2018-07-12T05:47:16.814Z,99.90
2018-07-12T05:49:45.278Z,99.90
2018-07-12T05:52:13.738Z,99.90
2018-07-12T05:54:42.147Z,99.90
2018-07-12T05:57:11.206Z,99.90
2018-07-12T05:59:39.778Z,99.90
2018-07-12T06:02:20.708Z,99.90
2018-07-12T06:04:50.000Z,99.90
2018-07-12T06:07:24.024Z,99.90
2018-07-12T06:09:52.732Z,99.90
2018-07-12T06:12:21.506Z,99.90
2018-07-12T06:14:50.700Z,99.90
2018-07-12T06:17:19.341Z,99.90
2018-07-12T06:19:48.219Z,99.90
2018-07-12T06:22:17.108Z,99.90
2018-07-12T06:24:46.433Z,99.90
2018-07-12T06:27:14.851Z,99.90
2018-07-12T06:32:12.948Z,99.90
2018-07-12T06:34:41.753Z,99.90
2018-07-12T06:37:10.561Z,99.90
2018-07-12T06:39:39.517Z,99.90
2018-07-12T06:44:36.444Z,99.90
2018-07-12T06:47:04.937Z,99.90
2018-07-12T06:49:33.620Z,99.90
2018-07-12T06:52:03.007Z,99.90
2018-07-12T06:54:31.413Z,99.90
2018-07-12T06:57:00.152Z,99.90
2018-07-12T06:59:29.086Z,99.90
2018-07-12T07:01:57.609Z,99.90
2018-07-12T07:04:26.281Z,99.90
2018-07-12T07:06:55.143Z,99.90
2018-07-12T07:09:24.582Z,99.90
2018-07-12T07:11:53.529Z,99.90
2018-07-12T07:14:22.778Z,99.90
2018-07-12T07:16:51.540Z,99.90
2018-07-12T07:19:21.086Z,99.90
2018-07-12T07:21:49.750Z,99.90
2018-07-12T07:24:18.424Z,99.90
2018-07-12T07:26:47.432Z,99.90
2018-07-12T07:29:16.021Z,99.90
2018-07-12T07:31:44.485Z,99.90
2018-07-12T07:34:13.556Z,99.90
2018-07-12T07:36:42.280Z,99.90
2018-07-12T07:39:11.083Z,99.90
2018-07-12T07:41:41.288Z,99.90
2018-07-12T07:44:10.480Z,99.90
2018-07-12T07:46:39.535Z,99.90
2018-07-12T07:49:08.137Z,99.90
2018-07-12T07:51:36.807Z,98.80
2018-07-12T07:54:05.730Z,99.40
2018-07-12T07:59:02.335Z,97.20
2018-07-12T08:01:31.605Z,99.50
2018-07-12T08:04:00.251Z,99.90
2018-07-12T08:06:30.520Z,99.00
2018-07-12T08:08:58.988Z,95.40
2018-07-12T08:11:27.843Z,94.70
2018-07-12T08:13:57.605Z,92.10
2018-07-12T08:16:26.809Z,92.70
2018-07-12T08:18:55.228Z,87.50
2018-07-12T08:21:24.352Z,87.60
2018-07-12T08:23:52.929Z,82.30
2018-07-12T08:26:21.339Z,78.70
2018-07-12T08:28:50.239Z,71.90
2018-07-12T08:31:20.145Z,71.20
2018-07-12T08:33:49.086Z,79.20
2018-07-12T08:36:17.885Z,73.90
2018-07-12T08:38:46.789Z,76.80
2018-07-12T08:41:15.420Z,78.50
2018-07-12T08:43:43.833Z,80.40
2018-07-12T08:46:12.866Z,81.00
2018-07-12T08:48:41.382Z,86.40
2018-07-12T08:51:10.090Z,85.80
2018-07-12T08:53:38.819Z,87.80
2018-07-12T08:56:07.457Z,92.30
2018-07-12T08:58:36.222Z,92.80
2018-07-12T09:01:04.808Z,95.30
2018-07-12T09:03:33.792Z,96.00
2018-07-12T09:06:02.616Z,95.80
2018-07-12T09:08:31.463Z,96.70
2018-07-12T09:10:59.994Z,94.80
2018-07-12T09:13:28.551Z,97.10
2018-07-12T09:15:57.277Z,94.30
2018-07-12T09:18:26.442Z,95.60
2018-07-12T09:20:54.988Z,95.50
2018-07-12T09:23:23.625Z,93.90
2018-07-12T09:25:52.350Z,93.10
2018-07-12T09:30:50.887Z,79.30
2018-07-12T09:33:19.673Z,72.40
2018-07-12T09:35:48.529Z,64.30
2018-07-12T09:38:35.613Z,61.40
2018-07-12T09:41:04.913Z,57.50
2018-07-12T09:43:33.319Z,58.10
2018-07-12T09:46:02.860Z,63.30
2018-07-12T09:48:31.984Z,57.10
2018-07-12T09:51:00.506Z,63.30
2018-07-12T09:53:29.252Z,66.00
2018-07-12T09:55:59.032Z,65.40
2018-07-12T09:58:28.855Z,68.00
2018-07-12T10:03:07.408Z,68.70
2018-07-12T10:05:41.400Z,68.40
2018-07-12T10:08:15.540Z,67.70
2018-07-12T10:10:52.469Z,66.00
2018-07-12T10:13:24.674Z,65.50
2018-07-12T10:15:59.307Z,70.60
2018-07-12T10:18:29.465Z,72.10
2018-07-12T10:20:58.229Z,78.30
2018-07-12T10:23:27.136Z,81.20
2018-07-12T10:25:56.936Z,81.50
2018-07-12T10:28:25.632Z,83.00
2018-07-12T10:30:54.260Z,80.60
2018-07-12T10:33:22.976Z,77.80
2018-07-12T10:35:52.620Z,79.50
2018-07-12T10:38:21.036Z,73.80
2018-07-12T10:40:49.583Z,74.90
2018-07-12T10:43:18.516Z,76.80
2018-07-12T10:45:47.201Z,78.60
2018-07-12T10:48:16.292Z,82.20
2018-07-12T10:50:45.644Z,82.70
2018-07-12T10:53:14.450Z,87.10
2018-07-12T10:55:43.882Z,87.40
2018-07-12T10:58:13.096Z,84.90
2018-07-12T11:00:41.777Z,84.30
2018-07-12T11:03:10.913Z,81.70
2018-07-12T11:05:39.888Z,81.50
2018-07-12T11:08:08.773Z,85.00
2018-07-12T11:10:37.290Z,85.20
2018-07-12T11:19:59.378Z,80.40
2018-07-12T11:22:28.394Z,82.30
2018-07-12T11:24:57.177Z,83.10
2018-07-12T11:27:26.968Z,79.80
2018-07-12T11:29:56.945Z,80.00
2018-07-12T11:32:25.649Z,83.10
2018-07-12T11:34:54.291Z,81.60
2018-07-12T11:37:25.942Z,78.70
2018-07-12T11:39:54.551Z,81.70
2018-07-12T11:42:23.448Z,79.60
2018-07-12T11:44:51.987Z,82.70
2018-07-12T11:47:21.104Z,82.70
2018-07-12T11:49:49.823Z,79.80
2018-07-12T11:52:18.861Z,82.00
2018-07-12T11:54:48.476Z,82.40
2018-07-12T11:57:17.247Z,79.20
2018-07-12T11:59:45.660Z,81.30
2018-07-12T12:04:42.595Z,82.40
2018-07-12T12:07:11.335Z,83.00
2018-07-12T12:09:39.965Z,83.10
2018-07-12T12:12:09.054Z,81.40
2018-07-12T12:14:37.736Z,79.90
2018-07-12T12:17:06.264Z,80.90
2018-07-12T12:19:34.778Z,79.40
2018-07-12T12:22:03.213Z,78.00
2018-07-12T12:24:32.146Z,82.30
2018-07-12T12:27:00.794Z,82.20
2018-07-12T12:29:29.200Z,78.90
2018-07-12T12:31:57.607Z,82.50
2018-07-12T12:34:26.202Z,81.30
2018-07-12T12:36:55.677Z,80.90
2018-07-12T12:39:24.258Z,86.30
2018-07-12T12:41:52.703Z,85.70
2018-07-12T12:44:21.191Z,84.10
2018-07-12T12:46:49.676Z,83.20
2018-07-12T12:49:19.163Z,87.80
2018-07-12T12:51:47.797Z,87.70
2018-07-12T12:54:16.646Z,84.20
2018-07-12T12:56:45.439Z,78.70
2018-07-12T12:59:14.026Z,80.20
2018-07-12T13:01:42.707Z,87.60
2018-07-12T13:04:11.480Z,86.30
2018-07-12T13:06:40.322Z,85.10
2018-07-12T13:09:09.111Z,80.40
2018-07-12T13:11:38.092Z,78.10
2018-07-12T13:14:06.529Z,81.50
2018-07-12T13:16:36.851Z,79.30
2018-07-12T13:19:05.631Z,75.80
2018-07-12T13:21:34.304Z,77.80
2018-07-12T13:24:02.790Z,76.90
2018-07-12T13:26:32.140Z,74.30
2018-07-12T13:29:00.569Z,75.70
2018-07-12T13:31:29.449Z,77.10
2018-07-12T13:33:58.627Z,79.00
2018-07-12T13:36:29.197Z,73.20
2018-07-12T13:38:58.019Z,76.00
2018-07-12T13:41:27.076Z,71.10
2018-07-12T13:44:07.054Z,76.90
2018-07-12T13:46:36.076Z,74.00
2018-07-12T13:49:05.501Z,75.70
2018-07-12T13:51:34.392Z,75.10
2018-07-12T13:54:03.281Z,77.60
2018-07-12T13:56:32.442Z,74.70
2018-07-12T13:59:01.256Z,73.60
2018-07-12T14:01:29.698Z,73.40
2018-07-12T14:03:58.684Z,76.80
2018-07-12T14:06:27.161Z,75.10
2018-07-12T14:08:55.943Z,75.70
2018-07-12T14:11:25.382Z,72.20
2018-07-12T14:13:53.886Z,74.70
2018-07-12T14:16:22.727Z,76.20
2018-07-12T14:18:53.081Z,70.90
2018-07-12T14:21:21.813Z,70.10
2018-07-12T14:23:50.223Z,72.40
2018-07-12T14:26:19.548Z,72.80
2018-07-12T14:28:48.584Z,70.50
2018-07-12T14:31:17.635Z,78.30
2018-07-12T14:33:46.892Z,75.30
2018-07-12T14:36:16.466Z,77.50
2018-07-12T14:38:45.150Z,73.60
2018-07-12T14:41:14.320Z,74.00
2018-07-12T14:43:42.742Z,73.80
2018-07-12T14:46:11.616Z,73.70
2018-07-12T14:48:40.331Z,73.60
2018-07-12T14:51:09.782Z,72.00
2018-07-12T14:53:38.450Z,71.80
2018-07-12T14:56:07.277Z,72.70
2018-07-12T14:58:35.934Z,77.00
2018-07-12T15:01:05.076Z,71.40
2018-07-12T15:03:33.527Z,72.60
2018-07-12T15:06:02.246Z,70.10
2018-07-12T15:08:31.801Z,71.30
2018-07-12T15:11:00.558Z,69.10
2018-07-12T15:13:28.993Z,74.90
2018-07-12T15:15:57.466Z,70.50
2018-07-12T15:18:26.148Z,72.10
2018-07-12T15:20:56.075Z,68.00
2018-07-12T15:23:24.891Z,70.60
2018-07-12T15:25:53.631Z,71.40
2018-07-12T15:28:22.933Z,69.10
2018-07-12T15:30:51.616Z,71.60
2018-07-12T15:33:20.181Z,70.00
2018-07-12T15:35:49.069Z,71.70
2018-07-12T15:38:18.491Z,67.70
2018-07-12T15:40:47.028Z,70.70
2018-07-12T15:43:15.921Z,71.70
2018-07-12T15:45:45.265Z,69.00
2018-07-12T15:48:13.821Z,68.90
2018-07-12T15:50:42.618Z,68.00
2018-07-12T15:53:11.280Z,67.70
2018-07-12T15:55:39.890Z,69.10
2018-07-12T15:58:09.037Z,68.70
2018-07-12T16:00:37.651Z,69.90
2018-07-12T16:03:06.583Z,66.70
2018-07-12T16:05:35.433Z,70.10
2018-07-12T16:08:04.987Z,70.60
2018-07-12T16:10:33.651Z,72.00
2018-07-12T16:13:02.118Z,69.90
2018-07-12T16:15:30.973Z,71.50
2018-07-12T16:18:00.676Z,68.60
2018-07-12T16:20:30.667Z,71.00
2018-07-12T16:22:59.516Z,70.50
2018-07-12T16:25:28.145Z,74.60
2018-07-12T16:27:57.022Z,74.00
2018-07-12T16:30:25.438Z,72.70
2018-07-12T16:32:54.122Z,70.20
2018-07-12T16:35:23.880Z,72.30
2018-07-12T16:37:53.650Z,72.60
2018-07-12T16:40:22.277Z,73.50
2018-07-12T16:42:51.959Z,72.00
2018-07-12T16:45:20.938Z,72.70
2018-07-12T16:47:57.436Z,74.10
2018-07-12T16:50:27.012Z,73.20
2018-07-12T16:52:56.601Z,72.60
2018-07-12T16:55:25.026Z,72.50
2018-07-12T16:57:53.451Z,72.40
2018-07-12T17:00:22.734Z,71.80
2018-07-12T17:02:51.383Z,75.00
2018-07-12T17:05:20.064Z,74.50
2018-07-12T17:07:48.687Z,76.10
2018-07-12T17:10:17.799Z,74.00
2018-07-12T17:12:47.295Z,74.40
2018-07-12T17:15:16.059Z,74.50
2018-07-12T17:20:12.834Z,75.30
2018-07-12T17:22:42.323Z,76.80
2018-07-12T17:25:11.160Z,74.00
2018-07-12T17:27:39.881Z,74.70
2018-07-12T17:30:09.173Z,73.80
2018-07-12T17:32:37.584Z,76.50
2018-07-12T17:35:06.221Z,73.80
2018-07-12T17:37:35.759Z,76.00
2018-07-12T17:40:04.582Z,76.40
2018-07-12T17:42:33.322Z,76.30
2018-07-12T17:45:03.990Z,79.70
2018-07-12T17:59:21.343Z,79.20
2018-07-12T18:01:49.952Z,79.00
2018-07-12T18:04:19.676Z,78.00
2018-07-12T18:06:48.429Z,80.20
2018-07-12T18:09:17.933Z,81.80
2018-07-12T18:11:46.581Z,78.90
2018-07-12T18:14:15.474Z,80.90
2018-07-12T18:16:44.961Z,79.50
2018-07-12T18:19:13.665Z,80.80
2018-07-12T18:21:42.141Z,81.50
2018-07-12T18:24:10.690Z,82.30
2018-07-12T18:26:39.134Z,82.00
2018-07-12T18:29:08.563Z,81.80
2018-07-12T18:31:37.025Z,81.50
2018-07-12T18:34:05.616Z,80.90
2018-07-12T18:36:35.169Z,81.60
2018-07-12T18:39:04.803Z,82.00
2018-07-12T18:41:33.327Z,83.70
2018-07-12T18:44:01.816Z,83.20
2018-07-12T18:46:31.435Z,84.80
2018-07-12T18:49:00.219Z,85.50
2018-07-12T18:51:29.736Z,84.60
2018-07-12T18:53:58.511Z,84.80
2018-07-12T18:56:27.711Z,84.90
2018-07-12T18:58:56.214Z,84.80
2018-07-12T19:01:25.251Z,85.20
2018-07-12T19:03:53.969Z,86.10
2018-07-12T19:06:22.783Z,86.70
2018-07-12T19:08:51.513Z,86.70
2018-07-12T19:11:19.964Z,87.30
2018-07-12T19:13:49.120Z,89.10
2018-07-12T19:16:18.082Z,89.50
2018-07-12T19:18:46.941Z,90.10
2018-07-12T19:21:16.079Z,90.40
2018-07-12T19:23:44.518Z,91.90
2018-07-12T19:26:13.398Z,93.30
2018-07-12T19:28:42.365Z,94.00
2018-07-12T19:31:11.680Z,94.60
2018-07-12T19:33:40.739Z,94.60
2018-07-12T19:36:09.205Z,95.90
2018-07-12T19:38:37.789Z,96.30
2018-07-12T19:41:07.750Z,97.20
2018-07-12T19:43:36.799Z,97.60
2018-07-12T19:46:05.521Z,98.70
2018-07-12T19:48:34.605Z,99.80
2018-07-12T19:51:03.279Z,99.90
2018-07-12T19:53:31.821Z,99.90
2018-07-12T19:56:01.162Z,99.90
2018-07-12T19:58:30.098Z,99.90
2018-07-12T20:00:59.079Z,99.90
2018-07-12T20:03:27.654Z,99.90
2018-07-12T20:05:57.823Z,99.90
2018-07-12T20:08:27.571Z,99.90
2018-07-12T20:10:56.720Z,99.90
2018-07-12T20:13:26.297Z,99.90
2018-07-12T20:15:54.964Z,99.90
2018-07-12T20:18:24.342Z,99.90
2018-07-12T20:20:53.718Z,99.90
2018-07-12T20:23:22.362Z,99.90
2018-07-12T20:25:51.296Z,99.90
2018-07-12T20:28:19.811Z,99.90
2018-07-12T20:30:49.963Z,99.90
2018-07-12T20:33:18.380Z,99.90
2018-07-12T20:35:46.964Z,99.90
2018-07-12T20:38:16.189Z,99.90
2018-07-12T20:40:45.737Z,99.90
2018-07-12T20:43:18.474Z,99.90
2018-07-12T20:45:47.985Z,99.90
2018-07-12T20:50:45.728Z,99.90
2018-07-12T20:53:14.835Z,99.90
2018-07-12T20:55:43.496Z,99.90
2018-07-12T20:58:12.793Z,99.90
2018-07-12T21:00:41.238Z,99.90
2018-07-12T21:03:09.638Z,99.90
2018-07-12T21:05:38.634Z,99.90
2018-07-12T21:08:07.066Z,99.90
2018-07-12T21:13:03.846Z,99.90
2018-07-12T21:15:32.646Z,99.90
2018-07-12T21:18:02.213Z,99.90
2018-07-12T21:20:31.294Z,99.90
2018-07-12T21:22:59.930Z,99.90
2018-07-12T21:25:29.116Z,99.90
2018-07-12T21:27:57.874Z,99.90
2018-07-12T21:30:26.262Z,99.90
2018-07-12T21:32:54.752Z,99.90
2018-07-12T21:35:23.472Z,99.90
2018-07-12T21:37:52.443Z,99.90
2018-07-12T21:40:20.880Z,99.90
2018-07-12T21:42:49.309Z,99.90
2018-07-12T21:45:17.729Z,99.90
2018-07-12T21:47:46.427Z,99.90
2018-07-12T21:50:14.890Z,99.90
2018-07-12T21:52:43.545Z,99.90
